Airfield :
LOGIN :

Register | Disclaimer

   EN    FR    IT 

 










Legend :    VFR   Marginal VFR   IFR   Intensive IFR   Very Intensive IFR
Visi :
Ceiling :
>= 8 km
>= 3000ft
5 to 8 km
1000 to 3000 ft
1500m to 5 km
500 to 1000 ft
800 to 1500m
200 to 500 ft
< 800m
< 200 ft
Symbols :   Thunderstorms  Fog  Heavy snow  Heavy precipitations  Wind > 20 kt
SIGMETs :     Misc.  Thunderstorms  Icing  Turbulence  Mountain Waves  Volcanic Ashes







- Airport Elevation : 461 ft
- IATA code : WIE


ETOU - Wiesbaden Army

CURRENT METAR :
  • 270808Z 07010KT 9999 BKN080 19/14 A2982 RMK AO2 RAB0755E0804 SLP096

EXPIRED METARs :
  • 270757Z 08008KT 9999 -RA BKN080 20/14 A2983 RMK AO2 RAB0757 SLP098
  • 270657Z 04004KT 9999 BKN080 20/15 A2983 RMK AO2 SLP098
  • 270557Z 05005KT 9999 BKN040 19/14 A2984 RMK AO2 SLP101

TAF AMD TAF ETOU
Valid from the 27 at 05:00 until the 28 at 09:00 UTC


270536Z 2705/2809 08009KT 9999 FEW025 BKN060 QNH2975INS
TEMPO 2705/2708 8000 -TSRA BKN040CB
BECMG 2713/2714 13015G25KT 8000 -TSRA BKN030CB QNH2966INS
BECMG 2719/2720 15009KT 9999 NSW FEW040 BKN050 QNH2954INS
BECMG 2806/2807 25012G18KT 8000 -SHRA BKN015 QNH2955INS TX26/2713Z TN16/2803Z
No reported NOTAMs for that airfield.



MET'MAP, your aeronautical weather chart ! - Copyright ORBIFLY December 2007 - Disclaimer

ORBIFLY MET'MAP TEAM :

Programming & Development : Alexandra Zaïnal
Concept & Development : Baudouin d'Aumeries
Co-Development & Prog : Marc-Olivier Méhu
Technical & hardware support : Manuel Goepfert

Contact : metmap@orbifly.com




SOURCES & CREDITS :

   NOAA